sensor_id;sensor_type;location;lat;lon;timestamp;pressure;altitude;pressure_sealevel;temperature;humidity
6150;BME280;3106;42.670;23.318;2023-09-12T00:01:12;94604.50;;;16.99;65.15
6150;BME280;3106;42.670;23.318;2023-09-12T00:03:39;94618.78;;;17.06;65.18
6150;BME280;3106;42.670;23.318;2023-09-12T00:06:06;94639.66;;;17.06;65.64
6150;BME280;3106;42.670;23.318;2023-09-12T00:08:33;94600.91;;;16.81;67.43
6150;BME280;3106;42.670;23.318;2023-09-12T00:11:01;94628.81;;;16.99;67.68
6150;BME280;3106;42.670;23.318;2023-09-12T00:13:30;94638.06;;;16.98;67.40
6150;BME280;3106;42.670;23.318;2023-09-12T00:15:58;94629.91;;;16.94;67.33
6150;BME280;3106;42.670;23.318;2023-09-12T00:18:25;94631.03;;;16.90;67.31
6150;BME280;3106;42.670;23.318;2023-09-12T00:20:52;94622.44;;;16.74;67.87
6150;BME280;3106;42.670;23.318;2023-09-12T00:23:21;94644.91;;;16.85;68.44
6150;BME280;3106;42.670;23.318;2023-09-12T00:25:49;94593.28;;;16.43;68.42
6150;BME280;3106;42.670;23.318;2023-09-12T00:28:16;94585.06;;;16.33;68.66
6150;BME280;3106;42.670;23.318;2023-09-12T00:30:45;94650.16;;;16.64;69.27
6150;BME280;3106;42.670;23.318;2023-09-12T00:33:12;94587.38;;;16.27;69.52
6150;BME280;3106;42.670;23.318;2023-09-12T00:35:38;94633.88;;;16.54;70.02
6150;BME280;3106;42.670;23.318;2023-09-12T00:38:05;94633.00;;;16.43;70.15
6150;BME280;3106;42.670;23.318;2023-09-12T00:40:35;94647.31;;;16.47;70.86
6150;BME280;3106;42.670;23.318;2023-09-12T00:43:03;94644.56;;;16.43;71.42
6150;BME280;3106;42.670;23.318;2023-09-12T00:45:30;94651.38;;;16.30;72.12
6150;BME280;3106;42.670;23.318;2023-09-12T00:47:58;94634.28;;;16.19;72.34
6150;BME280;3106;42.670;23.318;2023-09-12T00:50:28;94634.34;;;16.23;72.93
6150;BME280;3106;42.670;23.318;2023-09-12T00:52:56;94647.53;;;16.31;72.68
6150;BME280;3106;42.670;23.318;2023-09-12T00:55:23;94632.00;;;16.21;72.65
6150;BME280;3106;42.670;23.318;2023-09-12T00:57:51;94644.78;;;16.28;73.01
6150;BME280;3106;42.670;23.318;2023-09-12T01:00:18;94636.28;;;16.22;72.59
6150;BME280;3106;42.670;23.318;2023-09-12T01:02:46;94657.91;;;16.29;71.66
6150;BME280;3106;42.670;23.318;2023-09-12T01:05:16;94654.06;;;16.30;71.69
6150;BME280;3106;42.670;23.318;2023-09-12T01:07:43;94650.97;;;16.28;72.49
6150;BME280;3106;42.670;23.318;2023-09-12T01:10:11;94655.63;;;16.31;72.02
6150;BME280;3106;42.670;23.318;2023-09-12T01:12:38;94652.88;;;16.28;72.51
6150;BME280;3106;42.670;23.318;2023-09-12T01:15:05;94656.28;;;16.21;72.64
6150;BME280;3106;42.670;23.318;2023-09-12T01:17:39;94658.16;;;16.17;73.91
6150;BME280;3106;42.670;23.318;2023-09-12T01:20:08;94656.94;;;16.11;73.96
6150;BME280;3106;42.670;23.318;2023-09-12T01:25:54;94647.53;;;15.95;75.86
6150;BME280;3106;42.670;23.318;2023-09-12T01:28:30;94663.28;;;15.89;76.45
6150;BME280;3106;42.670;23.318;2023-09-12T01:31:00;94660.81;;;15.77;77.07
6150;BME280;3106;42.670;23.318;2023-09-12T01:33:28;94664.75;;;15.83;77.00
6150;BME280;3106;42.670;23.318;2023-09-12T01:35:55;94649.56;;;15.68;77.10
6150;BME280;3106;42.670;23.318;2023-09-12T01:38:22;94665.88;;;15.82;77.11
6150;BME280;3106;42.670;23.318;2023-09-12T01:40:50;94656.16;;;15.71;77.17
6150;BME280;3106;42.670;23.318;2023-09-12T01:43:19;94662.75;;;15.77;77.15
6150;BME280;3106;42.670;23.318;2023-09-12T01:45:50;94666.28;;;15.84;76.60
6150;BME280;3106;42.670;23.318;2023-09-12T01:48:19;94671.25;;;15.79;76.50
6150;BME280;3106;42.670;23.318;2023-09-12T01:50:48;94671.13;;;15.68;76.62
6150;BME280;3106;42.670;23.318;2023-09-12T01:53:15;94670.06;;;15.76;76.63
6150;BME280;3106;42.670;23.318;2023-09-12T01:55:43;94665.41;;;15.73;76.59
6150;BME280;3106;42.670;23.318;2023-09-12T01:58:11;94638.94;;;15.49;77.46
6150;BME280;3106;42.670;23.318;2023-09-12T02:00:38;94677.31;;;15.69;77.33
6150;BME280;3106;42.670;23.318;2023-09-12T02:03:07;94669.16;;;15.65;77.72
6150;BME280;3106;42.670;23.318;2023-09-12T02:05:33;94675.63;;;15.57;78.26
6150;BME280;3106;42.670;23.318;2023-09-12T02:08:00;94662.75;;;15.47;78.38
6150;BME280;3106;42.670;23.318;2023-09-12T02:10:27;94681.34;;;15.52;78.99
6150;BME280;3106;42.670;23.318;2023-09-12T02:12:53;94652.63;;;15.37;78.86
6150;BME280;3106;42.670;23.318;2023-09-12T02:15:20;94673.53;;;15.44;79.44
6150;BME280;3106;42.670;23.318;2023-09-12T02:17:47;94671.22;;;15.46;79.25
6150;BME280;3106;42.670;23.318;2023-09-12T02:20:17;94667.41;;;15.47;79.49
6150;BME280;3106;42.670;23.318;2023-09-12T02:22:45;94660.38;;;15.39;79.45
6150;BME280;3106;42.670;23.318;2023-09-12T02:25:11;94660.41;;;15.42;79.31
6150;BME280;3106;42.670;23.318;2023-09-12T02:27:38;94673.53;;;15.44;79.38
6150;BME280;3106;42.670;23.318;2023-09-12T02:30:06;94676.69;;;15.49;79.75
6150;BME280;3106;42.670;23.318;2023-09-12T02:32:33;94674.28;;;15.44;79.80
6150;BME280;3106;42.670;23.318;2023-09-12T02:35:00;94671.16;;;15.39;80.08
6150;BME280;3106;42.670;23.318;2023-09-12T02:37:29;94678.00;;;15.33;80.43
6150;BME280;3106;42.670;23.318;2023-09-12T02:39:56;94671.41;;;15.30;80.41
6150;BME280;3106;42.670;23.318;2023-09-12T02:42:22;94669.59;;;15.38;80.11
6150;BME280;3106;42.670;23.318;2023-09-12T02:44:49;94673.47;;;15.40;80.24
6150;BME280;3106;42.670;23.318;2023-09-12T02:47:17;94686.16;;;15.40;80.20
6150;BME280;3106;42.670;23.318;2023-09-12T02:49:44;94687.16;;;15.28;80.93
6150;BME280;3106;42.670;23.318;2023-09-12T02:52:11;94684.38;;;15.25;81.12
6150;BME280;3106;42.670;23.318;2023-09-12T02:54:39;94669.94;;;15.10;81.53
6150;BME280;3106;42.670;23.318;2023-09-12T02:57:06;94682.75;;;15.17;81.73
6150;BME280;3106;42.670;23.318;2023-09-12T02:59:32;94660.53;;;14.98;81.96
6150;BME280;3106;42.670;23.318;2023-09-12T03:01:59;94676.53;;;15.13;81.80
6150;BME280;3106;42.670;23.318;2023-09-12T03:04:26;94659.78;;;14.97;81.74
6150;BME280;3106;42.670;23.318;2023-09-12T03:06:53;94661.66;;;14.97;81.27
6150;BME280;3106;42.670;23.318;2023-09-12T03:09:20;94670.63;;;15.04;81.28
6150;BME280;3106;42.670;23.318;2023-09-12T03:11:49;94679.47;;;15.05;81.68
6150;BME280;3106;42.670;23.318;2023-09-12T03:14:16;94659.66;;;14.90;81.65
6150;BME280;3106;42.670;23.318;2023-09-12T03:16:43;94663.31;;;15.05;81.47
6150;BME280;3106;42.670;23.318;2023-09-12T03:19:09;94678.00;;;15.07;81.66
6150;BME280;3106;42.670;23.318;2023-09-12T03:21:36;94673.59;;;14.96;82.02
6150;BME280;3106;42.670;23.318;2023-09-12T03:24:04;94672.66;;;14.85;82.04
6150;BME280;3106;42.670;23.318;2023-09-12T03:26:33;94673.09;;;14.90;82.42
6150;BME280;3106;42.670;23.318;2023-09-12T03:29:02;94685.56;;;14.98;82.37
6150;BME280;3106;42.670;23.318;2023-09-12T03:31:28;94676.22;;;14.92;82.60
6150;BME280;3106;42.670;23.318;2023-09-12T03:33:55;94683.63;;;14.99;82.69
6150;BME280;3106;42.670;23.318;2023-09-12T03:36:22;94679.03;;;14.99;82.88
6150;BME280;3106;42.670;23.318;2023-09-12T03:38:48;94677.56;;;15.05;82.41
6150;BME280;3106;42.670;23.318;2023-09-12T03:41:15;94689.19;;;15.12;82.22
6150;BME280;3106;42.670;23.318;2023-09-12T03:43:42;94691.91;;;15.12;82.12
6150;BME280;3106;42.670;23.318;2023-09-12T03:46:10;94663.16;;;14.94;82.54
6150;BME280;3106;42.670;23.318;2023-09-12T03:48:37;94681.34;;;15.01;82.34
6150;BME280;3106;42.670;23.318;2023-09-12T03:51:04;94693.50;;;15.17;82.26
6150;BME280;3106;42.670;23.318;2023-09-12T03:53:30;94694.97;;;15.11;82.51
6150;BME280;3106;42.670;23.318;2023-09-12T03:55:58;94691.47;;;15.10;83.60
6150;BME280;3106;42.670;23.318;2023-09-12T03:58:25;94684.81;;;15.01;84.34
6150;BME280;3106;42.670;23.318;2023-09-12T04:00:52;94683.44;;;14.85;84.80
6150;BME280;3106;42.670;23.318;2023-09-12T04:03:20;94690.88;;;14.95;84.75
6150;BME280;3106;42.670;23.318;2023-09-12T04:05:47;94695.06;;;14.92;85.54
6150;BME280;3106;42.670;23.318;2023-09-12T04:08:14;94670.94;;;14.73;85.57
6150;BME280;3106;42.670;23.318;2023-09-12T04:10:41;94689.94;;;14.84;85.73
6150;BME280;3106;42.670;23.318;2023-09-12T04:13:07;94699.69;;;14.92;86.19
6150;BME280;3106;42.670;23.318;2023-09-12T04:15:34;94701.56;;;14.91;86.52
6150;BME280;3106;42.670;23.318;2023-09-12T04:18:01;94700.50;;;14.96;86.54
6150;BME280;3106;42.670;23.318;2023-09-12T04:20:39;94696.31;;;14.98;86.20
6150;BME280;3106;42.670;23.318;2023-09-12T04:23:06;94648.56;;;14.69;85.73
6150;BME280;3106;42.670;23.318;2023-09-12T04:25:33;94699.47;;;15.04;85.55
6150;BME280;3106;42.670;23.318;2023-09-12T04:27:59;94702.56;;;15.06;85.38
6150;BME280;3106;42.670;23.318;2023-09-12T04:30:26;94655.28;;;14.79;85.34
6150;BME280;3106;42.670;23.318;2023-09-12T04:32:53;94702.22;;;15.07;85.34
6150;BME280;3106;42.670;23.318;2023-09-12T04:35:20;94675.06;;;14.93;84.94
6150;BME280;3106;42.670;23.318;2023-09-12T04:37:49;94681.66;;;14.96;84.48
6150;BME280;3106;42.670;23.318;2023-09-12T04:40:16;94701.91;;;15.12;83.92
6150;BME280;3106;42.670;23.318;2023-09-12T04:42:44;94708.91;;;15.16;83.67
6150;BME280;3106;42.670;23.318;2023-09-12T04:45:11;94694.25;;;15.14;82.84
6150;BME280;3106;42.670;23.318;2023-09-12T04:47:38;94709.41;;;15.25;82.48
6150;BME280;3106;42.670;23.318;2023-09-12T04:50:05;94706.03;;;15.28;82.55
6150;BME280;3106;42.670;23.318;2023-09-12T04:52:32;94709.53;;;15.32;82.80
6150;BME280;3106;42.670;23.318;2023-09-12T04:55:00;94710.84;;;15.42;83.23
6150;BME280;3106;42.670;23.318;2023-09-12T04:57:30;94713.16;;;15.43;83.46
6150;BME280;3106;42.670;23.318;2023-09-12T04:59:58;94684.09;;;15.30;83.45
6150;BME280;3106;42.670;23.318;2023-09-12T05:02:25;94713.53;;;15.42;83.35
6150;BME280;3106;42.670;23.318;2023-09-12T05:04:51;94714.59;;;15.37;82.82
6150;BME280;3106;42.670;23.318;2023-09-12T05:07:18;94714.66;;;16.03;80.80
6150;BME280;3106;42.670;23.318;2023-09-12T05:09:45;94715.53;;;17.34;74.96
6150;BME280;3106;42.670;23.318;2023-09-12T05:12:13;94724.53;;;18.54;66.82
6150;BME280;3106;42.670;23.318;2023-09-12T05:14:40;94731.94;;;19.41;62.43
6150;BME280;3106;42.670;23.318;2023-09-12T05:17:06;94714.69;;;20.14;58.89
6150;BME280;3106;42.670;23.318;2023-09-12T05:19:33;94727.50;;;20.82;56.42
6150;BME280;3106;42.670;23.318;2023-09-12T05:22:00;94717.66;;;21.05;54.71
6150;BME280;3106;42.670;23.318;2023-09-12T05:24:27;94726.41;;;21.30;53.86
6150;BME280;3106;42.670;23.318;2023-09-12T05:26:53;94724.88;;;21.26;53.40
6150;BME280;3106;42.670;23.318;2023-09-12T05:29:21;94719.59;;;21.52;52.70
6150;BME280;3106;42.670;23.318;2023-09-12T05:31:48;94714.19;;;21.48;52.59
6150;BME280;3106;42.670;23.318;2023-09-12T05:34:18;94702.66;;;21.34;52.31
6150;BME280;3106;42.670;23.318;2023-09-12T05:36:44;94737.41;;;21.60;52.23
6150;BME280;3106;42.670;23.318;2023-09-12T05:39:11;94732.50;;;21.85;52.03
6150;BME280;3106;42.670;23.318;2023-09-12T05:41:39;94696.50;;;22.04;50.14
6150;BME280;3106;42.670;23.318;2023-09-12T05:44:06;94734.16;;;22.12;49.94
6150;BME280;3106;42.670;23.318;2023-09-12T05:46:34;94733.25;;;22.22;50.05
6150;BME280;3106;42.670;23.318;2023-09-12T05:49:00;94738.31;;;22.20;49.62
6150;BME280;3106;42.670;23.318;2023-09-12T05:51:27;94742.59;;;22.21;49.94
6150;BME280;3106;42.670;23.318;2023-09-12T05:53:54;94746.63;;;22.43;49.09
6150;BME280;3106;42.670;23.318;2023-09-12T05:56:21;94743.97;;;22.03;49.72
6150;BME280;3106;42.670;23.318;2023-09-12T05:58:47;94729.91;;;22.08;49.08
6150;BME280;3106;42.670;23.318;2023-09-12T06:01:15;94729.63;;;21.99;49.12
6150;BME280;3106;42.670;23.318;2023-09-12T06:03:44;94739.16;;;21.80;49.85
6150;BME280;3106;42.670;23.318;2023-09-12T06:06:10;94728.84;;;21.18;51.29
6150;BME280;3106;42.670;23.318;2023-09-12T06:08:38;94732.41;;;20.43;52.39
6150;BME280;3106;42.670;23.318;2023-09-12T06:11:05;94712.78;;;20.14;53.76
6150;BME280;3106;42.670;23.318;2023-09-12T06:13:31;94732.97;;;19.96;54.22
6150;BME280;3106;42.670;23.318;2023-09-12T06:16:01;94733.47;;;19.60;54.77
6150;BME280;3106;42.670;23.318;2023-09-12T06:18:27;94740.06;;;19.41;55.89
6150;BME280;3106;42.670;23.318;2023-09-12T06:20:57;94745.50;;;19.34;56.63
6150;BME280;3106;42.670;23.318;2023-09-12T06:23:24;94730.78;;;19.32;56.71
6150;BME280;3106;42.670;23.318;2023-09-12T06:25:51;94724.59;;;19.21;57.04
6150;BME280;3106;42.670;23.318;2023-09-12T06:28:25;94734.28;;;19.22;57.23
6150;BME280;3106;42.670;23.318;2023-09-12T06:30:52;94747.41;;;18.88;58.62
6150;BME280;3106;42.670;23.318;2023-09-12T06:33:18;94750.13;;;18.88;58.58
6150;BME280;3106;42.670;23.318;2023-09-12T06:35:48;94747.78;;;18.76;59.29
6150;BME280;3106;42.670;23.318;2023-09-12T06:38:16;94742.34;;;18.76;59.60
6150;BME280;3106;42.670;23.318;2023-09-12T06:40:43;94741.63;;;19.04;59.13
6150;BME280;3106;42.670;23.318;2023-09-12T06:43:10;94743.97;;;19.16;58.21
6150;BME280;3106;42.670;23.318;2023-09-12T06:45:37;94754.03;;;19.36;57.80
6150;BME280;3106;42.670;23.318;2023-09-12T06:48:04;94756.34;;;19.48;57.42
6150;BME280;3106;42.670;23.318;2023-09-12T06:50:31;94765.66;;;19.54;57.01
6150;BME280;3106;42.670;23.318;2023-09-12T06:52:58;94766.78;;;19.57;57.09
6150;BME280;3106;42.670;23.318;2023-09-12T06:55:28;94766.41;;;19.58;56.69
6150;BME280;3106;42.670;23.318;2023-09-12T06:57:54;94766.78;;;19.57;56.47
6150;BME280;3106;42.670;23.318;2023-09-12T07:00:21;94764.47;;;19.55;56.82
6150;BME280;3106;42.670;23.318;2023-09-12T07:02:48;94762.16;;;19.57;56.60
6150;BME280;3106;42.670;23.318;2023-09-12T07:05:14;94750.47;;;19.84;56.20
6150;BME280;3106;42.670;23.318;2023-09-12T07:07:41;94765.59;;;19.79;56.35
6150;BME280;3106;42.670;23.318;2023-09-12T07:10:08;94760.16;;;19.82;56.44
6150;BME280;3106;42.670;23.318;2023-09-12T07:12:36;94757.84;;;19.81;56.42
6150;BME280;3106;42.670;23.318;2023-09-12T07:15:04;94712.97;;;19.45;56.59
6150;BME280;3106;42.670;23.318;2023-09-12T07:17:31;94758.63;;;19.67;56.42
6150;BME280;3106;42.670;23.318;2023-09-12T07:19:58;94747.03;;;19.60;56.74
6150;BME280;3106;42.670;23.318;2023-09-12T07:22:25;94749.69;;;19.77;56.47
6150;BME280;3106;42.670;23.318;2023-09-12T07:24:52;94757.00;;;20.11;55.65
6150;BME280;3106;42.670;23.318;2023-09-12T07:27:19;94760.38;;;20.36;54.94
6150;BME280;3106;42.670;23.318;2023-09-12T07:29:47;94758.41;;;20.44;54.34
6150;BME280;3106;42.670;23.318;2023-09-12T07:32:14;94765.06;;;20.32;54.65
6150;BME280;3106;42.670;23.318;2023-09-12T07:34:40;94753.34;;;20.46;54.00
6150;BME280;3106;42.670;23.318;2023-09-12T07:37:10;94766.41;;;20.72;53.84
6150;BME280;3106;42.670;23.318;2023-09-12T07:39:37;94750.16;;;20.65;53.50
6150;BME280;3106;42.670;23.318;2023-09-12T07:42:04;94749.69;;;20.80;53.05
6150;BME280;3106;42.670;23.318;2023-09-12T07:44:31;94760.19;;;20.78;53.11
6150;BME280;3106;42.670;23.318;2023-09-12T07:46:59;94761.31;;;20.77;52.86
6150;BME280;3106;42.670;23.318;2023-09-12T07:49:26;94747.34;;;20.79;52.53
6150;BME280;3106;42.670;23.318;2023-09-12T07:51:53;94741.75;;;21.03;52.18
6150;BME280;3106;42.670;23.318;2023-09-12T07:54:22;94754.66;;;20.92;51.78
6150;BME280;3106;42.670;23.318;2023-09-12T07:56:48;94762.06;;;20.88;51.82
6150;BME280;3106;42.670;23.318;2023-09-12T07:59:15;94753.38;;;21.11;51.07
6150;BME280;3106;42.670;23.318;2023-09-12T08:01:42;94761.53;;;21.11;50.56
6150;BME280;3106;42.670;23.318;2023-09-12T08:04:10;94751.38;;;21.18;50.22
6150;BME280;3106;42.670;23.318;2023-09-12T08:06:37;94742.19;;;21.45;49.67
6150;BME280;3106;42.670;23.318;2023-09-12T08:09:04;94756.84;;;21.62;49.30
6150;BME280;3106;42.670;23.318;2023-09-12T08:11:31;94739.63;;;21.72;48.57
6150;BME280;3106;42.670;23.318;2023-09-12T08:13:57;94762.84;;;21.83;48.26
6150;BME280;3106;42.670;23.318;2023-09-12T08:16:24;94757.56;;;21.69;47.45
6150;BME280;3106;42.670;23.318;2023-09-12T08:18:51;94763.75;;;21.73;47.30
6150;BME280;3106;42.670;23.318;2023-09-12T08:21:19;94763.38;;;21.71;47.21
6150;BME280;3106;42.670;23.318;2023-09-12T08:23:46;94763.22;;;21.85;46.64
6150;BME280;3106;42.670;23.318;2023-09-12T08:26:12;94757.84;;;22.15;45.43
6150;BME280;3106;42.670;23.318;2023-09-12T08:28:40;94747.56;;;22.30;44.94
6150;BME280;3106;42.670;23.318;2023-09-12T08:31:07;94769.31;;;22.67;44.57
6150;BME280;3106;42.670;23.318;2023-09-12T08:33:34;94707.22;;;22.18;45.01
6150;BME280;3106;42.670;23.318;2023-09-12T08:36:00;94761.00;;;22.47;45.13
6150;BME280;3106;42.670;23.318;2023-09-12T08:38:29;94747.31;;;22.77;44.17
6150;BME280;3106;42.670;23.318;2023-09-12T08:40:55;94749.56;;;23.12;43.70
6150;BME280;3106;42.670;23.318;2023-09-12T08:43:25;94736.44;;;23.30;43.27
6150;BME280;3106;42.670;23.318;2023-09-12T08:45:52;94748.56;;;23.52;42.77
6150;BME280;3106;42.670;23.318;2023-09-12T08:48:20;94755.19;;;23.74;42.02
6150;BME280;3106;42.670;23.318;2023-09-12T08:50:49;94745.31;;;23.80;41.59
6150;BME280;3106;42.670;23.318;2023-09-12T08:53:16;94746.78;;;23.88;41.40
6150;BME280;3106;42.670;23.318;2023-09-12T08:55:49;94748.03;;;24.03;41.26
6150;BME280;3106;42.670;23.318;2023-09-12T08:58:17;94736.13;;;23.93;41.54
6150;BME280;3106;42.670;23.318;2023-09-12T09:00:44;94734.88;;;23.75;41.76
6150;BME280;3106;42.670;23.318;2023-09-12T09:03:12;94744.06;;;23.61;41.16
6150;BME280;3106;42.670;23.318;2023-09-12T09:05:40;94745.88;;;23.48;41.53
6150;BME280;3106;42.670;23.318;2023-09-12T09:08:09;94745.03;;;23.51;41.63
6150;BME280;3106;42.670;23.318;2023-09-12T09:10:36;94732.50;;;23.77;41.24
6150;BME280;3106;42.670;23.318;2023-09-12T09:13:05;94738.19;;;23.86;41.05
6150;BME280;3106;42.670;23.318;2023-09-12T09:15:32;94733.34;;;23.97;40.93
6150;BME280;3106;42.670;23.318;2023-09-12T09:18:02;94725.50;;;23.99;40.64
6150;BME280;3106;42.670;23.318;2023-09-12T09:20:32;94737.44;;;23.85;41.05
6150;BME280;3106;42.670;23.318;2023-09-12T09:23:01;94729.56;;;24.30;40.20
6150;BME280;3106;42.670;23.318;2023-09-12T09:25:30;94725.78;;;24.63;40.10
6150;BME280;3106;42.670;23.318;2023-09-12T09:27:57;94719.72;;;24.71;39.32
6150;BME280;3106;42.670;23.318;2023-09-12T09:30:42;94717.88;;;24.84;39.26
6150;BME280;3106;42.670;23.318;2023-09-12T09:33:10;94714.06;;;25.13;38.59
6150;BME280;3106;42.670;23.318;2023-09-12T09:35:37;94713.22;;;25.32;38.22
6150;BME280;3106;42.670;23.318;2023-09-12T09:38:06;94711.84;;;25.72;38.14
6150;BME280;3106;42.670;23.318;2023-09-12T09:40:34;94722.91;;;25.97;36.76
6150;BME280;3106;42.670;23.318;2023-09-12T09:43:02;94718.84;;;26.18;36.82
6150;BME280;3106;42.670;23.318;2023-09-12T09:45:30;94715.25;;;26.33;36.41
6150;BME280;3106;42.670;23.318;2023-09-12T09:47:59;94710.41;;;26.24;35.97
6150;BME280;3106;42.670;23.318;2023-09-12T09:50:33;94694.31;;;26.27;35.90
6150;BME280;3106;42.670;23.318;2023-09-12T09:53:01;94708.63;;;26.46;35.55
6150;BME280;3106;42.670;23.318;2023-09-12T09:55:29;94711.41;;;26.59;35.80
6150;BME280;3106;42.670;23.318;2023-09-12T09:57:56;94702.41;;;26.58;35.32
6150;BME280;3106;42.670;23.318;2023-09-12T10:00:23;94688.16;;;26.51;35.70
6150;BME280;3106;42.670;23.318;2023-09-12T10:02:51;94705.63;;;26.69;35.24
6150;BME280;3106;42.670;23.318;2023-09-12T10:05:20;94693.88;;;26.94;35.18
6150;BME280;3106;42.670;23.318;2023-09-12T10:07:49;94694.31;;;27.05;35.01
6150;BME280;3106;42.670;23.318;2023-09-12T10:10:17;94689.69;;;27.02;34.32
6150;BME280;3106;42.670;23.318;2023-09-12T10:12:48;94693.91;;;26.40;34.82
6150;BME280;3106;42.670;23.318;2023-09-12T10:15:18;94648.06;;;26.00;35.71
6150;BME280;3106;42.670;23.318;2023-09-12T10:17:48;94685.22;;;26.42;35.41
6150;BME280;3106;42.670;23.318;2023-09-12T10:20:21;94675.88;;;26.68;35.49
6150;BME280;3106;42.670;23.318;2023-09-12T10:22:55;94681.78;;;26.79;33.96
6150;BME280;3106;42.670;23.318;2023-09-12T10:25:26;94678.19;;;26.69;34.61
6150;BME280;3106;42.670;23.318;2023-09-12T10:27:54;94682.25;;;26.90;34.14
6150;BME280;3106;42.670;23.318;2023-09-12T10:30:22;94671.16;;;26.93;34.38
6150;BME280;3106;42.670;23.318;2023-09-12T10:32:49;94676.09;;;26.73;34.39
6150;BME280;3106;42.670;23.318;2023-09-12T10:35:17;94665.78;;;26.90;34.33
6150;BME280;3106;42.670;23.318;2023-09-12T10:37:46;94678.50;;;27.34;33.97
6150;BME280;3106;42.670;23.318;2023-09-12T10:40:16;94669.69;;;27.39;33.74
6150;BME280;3106;42.670;23.318;2023-09-12T10:42:44;94668.91;;;27.51;33.80
6150;BME280;3106;42.670;23.318;2023-09-12T10:45:12;94667.31;;;27.75;33.29
6150;BME280;3106;42.670;23.318;2023-09-12T10:47:39;94672.66;;;27.91;33.47
6150;BME280;3106;42.670;23.318;2023-09-12T10:50:07;94664.81;;;28.01;33.49
6150;BME280;3106;42.670;23.318;2023-09-12T10:52:33;94663.22;;;27.92;33.39
6150;BME280;3106;42.670;23.318;2023-09-12T10:55:06;94656.22;;;27.78;33.13
6150;BME280;3106;42.670;23.318;2023-09-12T10:57:33;94657.75;;;27.67;33.88
6150;BME280;3106;42.670;23.318;2023-09-12T11:00:18;94657.88;;;27.63;34.19
6150;BME280;3106;42.670;23.318;2023-09-12T11:02:44;94650.69;;;27.91;33.40
6150;BME280;3106;42.670;23.318;2023-09-12T11:05:35;94652.53;;;27.93;33.39
6150;BME280;3106;42.670;23.318;2023-09-12T11:08:02;94645.94;;;28.12;32.17
6150;BME280;3106;42.670;23.318;2023-09-12T11:10:32;94636.72;;;28.28;32.28
6150;BME280;3106;42.670;23.318;2023-09-12T11:12:59;94634.19;;;28.33;31.95
6150;BME280;3106;42.670;23.318;2023-09-12T11:15:27;94637.25;;;28.35;31.85
6150;BME280;3106;42.670;23.318;2023-09-12T11:18:02;94637.81;;;28.52;32.31
6150;BME280;3106;42.670;23.318;2023-09-12T11:20:51;94633.28;;;28.36;32.37
6150;BME280;3106;42.670;23.318;2023-09-12T11:23:19;94627.41;;;28.25;32.23
6150;BME280;3106;42.670;23.318;2023-09-12T11:25:47;94600.78;;;28.22;31.64
6150;BME280;3106;42.670;23.318;2023-09-12T11:28:15;94623.97;;;28.64;31.79
6150;BME280;3106;42.670;23.318;2023-09-12T11:31:06;94625.84;;;28.76;31.39
6150;BME280;3106;42.670;23.318;2023-09-12T11:33:32;94634.91;;;28.86;30.62
6150;BME280;3106;42.670;23.318;2023-09-12T11:35:59;94625.03;;;28.67;30.83
6150;BME280;3106;42.670;23.318;2023-09-12T11:38:30;94623.22;;;28.73;30.87
6150;BME280;3106;42.670;23.318;2023-09-12T11:40:59;94625.44;;;28.87;30.31
6150;BME280;3106;42.670;23.318;2023-09-12T11:43:27;94615.06;;;28.60;31.16
6150;BME280;3106;42.670;23.318;2023-09-12T11:45:55;94604.53;;;28.68;30.53
6150;BME280;3106;42.670;23.318;2023-09-12T11:48:22;94606.00;;;28.51;30.95
6150;BME280;3106;42.670;23.318;2023-09-12T11:50:52;94611.00;;;28.43;31.46
6150;BME280;3106;42.670;23.318;2023-09-12T11:53:20;94601.56;;;28.53;31.07
6150;BME280;3106;42.670;23.318;2023-09-12T11:55:49;94603.16;;;28.63;31.35
6150;BME280;3106;42.670;23.318;2023-09-12T11:58:18;94587.06;;;28.53;31.14
6150;BME280;3106;42.670;23.318;2023-09-12T12:00:47;94598.81;;;28.53;31.59
6150;BME280;3106;42.670;23.318;2023-09-12T12:03:14;94564.16;;;28.56;31.22
6150;BME280;3106;42.670;23.318;2023-09-12T12:05:42;94593.75;;;28.82;31.16
6150;BME280;3106;42.670;23.318;2023-09-12T12:08:10;94604.50;;;28.89;31.03
6150;BME280;3106;42.670;23.318;2023-09-12T12:10:37;94567.72;;;28.74;30.77
6150;BME280;3106;42.670;23.318;2023-09-12T12:13:05;94582.34;;;28.93;30.94
6150;BME280;3106;42.670;23.318;2023-09-12T12:15:33;94600.84;;;28.92;30.56
6150;BME280;3106;42.670;23.318;2023-09-12T12:18:00;94595.28;;;28.83;30.53
6150;BME280;3106;42.670;23.318;2023-09-12T12:20:26;94589.31;;;28.85;30.94
6150;BME280;3106;42.670;23.318;2023-09-12T12:22:55;94584.94;;;28.96;30.74
6150;BME280;3106;42.670;23.318;2023-09-12T12:25:22;94581.72;;;28.89;31.01
6150;BME280;3106;42.670;23.318;2023-09-12T12:27:49;94582.53;;;28.98;30.75
6150;BME280;3106;42.670;23.318;2023-09-12T12:30:18;94582.19;;;28.96;30.41
6150;BME280;3106;42.670;23.318;2023-09-12T12:32:46;94578.81;;;28.92;30.69
6150;BME280;3106;42.670;23.318;2023-09-12T12:35:17;94580.72;;;29.22;30.67
6150;BME280;3106;42.670;23.318;2023-09-12T12:37:45;94581.66;;;29.37;30.09
6150;BME280;3106;42.670;23.318;2023-09-12T12:40:12;94582.72;;;29.40;29.97
6150;BME280;3106;42.670;23.318;2023-09-12T12:42:40;94572.16;;;29.29;29.76
6150;BME280;3106;42.670;23.318;2023-09-12T12:45:12;94571.69;;;29.31;30.02
6150;BME280;3106;42.670;23.318;2023-09-12T12:47:39;94564.97;;;29.32;30.05
6150;BME280;3106;42.670;23.318;2023-09-12T12:50:10;94576.28;;;29.25;29.73
6150;BME280;3106;42.670;23.318;2023-09-12T12:52:37;94579.97;;;29.40;29.22
6150;BME280;3106;42.670;23.318;2023-09-12T12:55:05;94570.06;;;29.51;29.47
6150;BME280;3106;42.670;23.318;2023-09-12T12:57:31;94570.97;;;29.39;29.86
6150;BME280;3106;42.670;23.318;2023-09-12T12:59:58;94544.75;;;29.17;29.89
6150;BME280;3106;42.670;23.318;2023-09-12T13:02:26;94553.97;;;28.83;30.36
6150;BME280;3106;42.670;23.318;2023-09-12T13:04:52;94544.41;;;28.57;30.43
6150;BME280;3106;42.670;23.318;2023-09-12T13:07:24;94548.78;;;28.85;30.28
6150;BME280;3106;42.670;23.318;2023-09-12T13:09:50;94561.41;;;29.04;30.14
6150;BME280;3106;42.670;23.318;2023-09-12T13:12:17;94529.28;;;29.10;29.84
6150;BME280;3106;42.670;23.318;2023-09-12T13:14:44;94552.72;;;29.24;29.88
6150;BME280;3106;42.670;23.318;2023-09-12T13:17:11;94530.22;;;29.16;29.55